Time;durP1;ratioP1;P1;durP2;ratioP2;P2;SDS_P1;SDS_P2;PMS_P1;PMS_P2;Temp;Humidity;BMP_temperature;BMP_pressure;BME280_temperature;BME280_humidity;BME280_pressure;Samples;Min_cycle;Max_cycle;Signal;HPM_P1;HPM_P2
2022/02/03 00:00:20;;;;;;;16.05;3.88;;;3.90;99.90;;;;;;5074000;28;20199;-48
2022/02/03 00:02:59;;;;;;;17.77;4.35;;;3.90;99.90;;;;;;5074631;28;20303;-47
2022/02/03 00:05:39;;;;;;;7.78;3.30;;;3.90;99.90;;;;;;5075200;28;20233;-48
2022/02/03 00:08:12;;;;;;;14.90;3.97;;;3.90;99.90;;;;;;5056474;28;20246;-47
2022/02/03 00:10:58;;;;;;;9.23;3.00;;;3.90;99.90;;;;;;5054759;28;20209;-47
2022/02/03 00:16:42;;;;;;;12.02;2.97;;;3.90;99.90;;;;;;5055400;28;20393;-48
2022/02/03 00:24:59;;;;;;;23.25;4.80;;;4.00;99.90;;;;;;5051801;28;20208;-47
2022/02/03 00:27:50;;;;;;;13.90;3.60;;;4.00;99.90;;;;;;5063989;22;20232;-50
2022/02/03 00:30:18;;;;;;;19.90;3.90;;;4.00;99.90;;;;;;5032778;28;20531;-50
2022/02/03 00:35:52;;;;;;;13.23;3.47;;;4.10;99.90;;;;;;5024164;28;20212;-51
2022/02/03 00:49:31;;;;;;;17.23;4.22;;;4.00;99.90;;;;;;5012590;28;20233;-49
2022/02/03 00:52:00;;;;;;;9.57;3.42;;;3.80;99.90;;;;;;5013031;28;20209;-50
2022/02/03 00:54:31;;;;;;;7.65;3.25;;;3.90;99.90;;;;;;5013077;28;20211;-49
2022/02/03 00:57:03;;;;;;;8.10;2.45;;;3.80;99.90;;;;;;5012954;28;20597;-50
2022/02/03 00:59:35;;;;;;;9.23;4.15;;;3.80;99.90;;;;;;5012421;28;20193;-50
2022/02/03 01:02:05;;;;;;;14.20;3.47;;;3.80;99.90;;;;;;5012734;28;20201;-50
2022/02/03 01:04:33;;;;;;;13.10;3.85;;;3.80;99.90;;;;;;5012733;28;20200;-49
2022/02/03 01:07:01;;;;;;;15.00;3.78;;;3.70;99.90;;;;;;5022253;28;20224;-50
2022/02/03 01:09:33;;;;;;;15.57;3.78;;;3.80;99.90;;;;;;5032133;28;20247;-49
2022/02/03 01:12:09;;;;;;;17.30;4.38;;;3.70;99.90;;;;;;5032507;28;20193;-49
2022/02/03 01:14:45;;;;;;;20.92;4.55;;;3.70;99.90;;;;;;5032455;28;20279;-49
2022/02/03 01:17:25;;;;;;;12.65;4.32;;;3.70;99.90;;;;;;5032121;28;20766;-50
2022/02/03 01:20:40;;;;;;;17.08;4.25;;;3.70;99.90;;;;;;5032103;28;20197;-49
2022/02/03 01:34:33;;;;;;;18.65;3.60;;;3.80;99.90;;;;;;5032107;28;20196;-50
2022/02/03 01:37:22;;;;;;;15.38;3.90;;;3.80;99.90;;;;;;5032284;28;20239;-49
2022/02/03 01:45:50;;;;;;;16.17;3.60;;;4.00;99.90;;;;;;5031602;28;20220;-49
2022/02/03 01:48:23;;;;;;;11.73;3.58;;;4.00;99.90;;;;;;5031791;28;20303;-50
2022/02/03 01:53:39;;;;;;;20.13;3.65;;;4.20;99.90;;;;;;5031797;28;20254;-50
2022/02/03 01:56:08;;;;;;;10.68;2.95;;;4.20;99.90;;;;;;5031698;28;20224;-49
2022/02/03 01:58:44;;;;;;;10.23;3.05;;;4.20;99.90;;;;;;5031336;28;20205;-50
2022/02/03 02:01:14;;;;;;;13.65;3.10;;;4.20;99.90;;;;;;5031620;28;20255;-50
2022/02/03 02:03:43;;;;;;;12.43;3.55;;;4.30;99.90;;;;;;5030274;28;20193;-50
2022/02/03 02:06:21;;;;;;;16.60;3.17;;;4.30;99.90;;;;;;5031405;28;20251;-50
2022/02/03 02:08:56;;;;;;;15.48;3.72;;;4.40;99.90;;;;;;5031231;28;20581;-50
2022/02/03 02:11:43;;;;;;;18.38;3.72;;;4.30;99.90;;;;;;5031472;28;20294;-50
2022/02/03 02:14:51;;;;;;;13.18;3.08;;;4.40;99.90;;;;;;5031443;28;20192;-49
2022/02/03 02:17:59;;;;;;;15.63;4.68;;;4.40;99.90;;;;;;5031835;28;20224;-50
2022/02/03 02:37:34;;;;;;;10.43;3.45;;;4.60;99.90;;;;;;4996603;28;20492;-50
2022/02/03 02:40:29;;;;;;;17.38;3.53;;;4.70;99.90;;;;;;5015178;28;20201;-49
2022/02/03 02:43:03;;;;;;;17.98;3.92;;;4.70;99.90;;;;;;5015401;28;20284;-49
2022/02/03 02:45:43;;;;;;;21.17;3.92;;;4.60;99.90;;;;;;5026742;28;20243;-50
2022/02/03 02:48:22;;;;;;;12.38;3.10;;;4.60;99.90;;;;;;5035426;28;20212;-49
2022/02/03 02:50:58;;;;;;;13.93;2.70;;;4.60;99.90;;;;;;5035007;28;20192;-50
2022/02/03 02:53:37;;;;;;;10.47;2.70;;;4.60;99.90;;;;;;5035483;28;20207;-50
2022/02/03 02:56:19;;;;;;;14.82;3.70;;;4.60;99.90;;;;;;5034777;28;20439;-49
2022/02/03 02:59:06;;;;;;;13.02;3.65;;;4.60;99.90;;;;;;5034623;28;20256;-50
2022/02/03 03:02:25;;;;;;;17.95;4.50;;;4.50;99.90;;;;;;5034856;28;20192;-50
2022/02/03 03:30:21;;;;;;;21.40;3.80;;;4.80;99.90;;;;;;5032733;28;20569;-49
2022/02/03 03:33:04;;;;;;;12.90;3.00;;;4.80;99.90;;;;;;5034348;28;20208;-49
2022/02/03 03:35:41;;;;;;;11.63;3.28;;;4.80;99.90;;;;;;5034331;28;20654;-50
2022/02/03 03:38:09;;;;;;;21.13;3.73;;;4.80;99.90;;;;;;5034054;28;20315;-49
2022/02/03 03:40:40;;;;;;;13.80;3.67;;;4.90;99.90;;;;;;5033769;28;20530;-49
2022/02/03 03:43:08;;;;;;;15.15;3.40;;;4.90;99.90;;;;;;5034185;28;20205;-49
2022/02/03 03:45:38;;;;;;;15.63;2.85;;;4.90;99.90;;;;;;5034101;28;20208;-49
2022/02/03 03:48:09;;;;;;;9.75;3.78;;;4.90;99.90;;;;;;5033635;28;20287;-50
2022/02/03 03:50:38;;;;;;;11.90;4.00;;;4.90;99.90;;;;;;5033641;28;20200;-50
2022/02/03 03:53:12;;;;;;;13.80;2.90;;;4.90;99.90;;;;;;5033997;28;20201;-50
2022/02/03 03:55:49;;;;;;;15.33;3.40;;;4.90;99.90;;;;;;5033788;28;20436;-49
2022/02/03 03:58:37;;;;;;;16.30;3.90;;;4.90;99.90;;;;;;5033748;28;21039;-49
2022/02/03 04:30:17;;;;;;;14.32;3.70;;;5.00;99.90;;;;;;5033059;28;20199;-50
2022/02/03 04:38:56;;;;;;;15.48;4.18;;;5.10;99.90;;;;;;5033737;28;20221;-49
2022/02/03 04:42:09;;;;;;;14.05;3.30;;;5.00;99.90;;;;;;5033671;28;20204;-49
2022/02/03 05:02:43;;;;;;;16.25;5.13;;;4.70;99.90;;;;;;5033635;28;20270;-50
2022/02/03 05:05:39;;;;;;;18.40;6.38;;;4.70;99.90;;;;;;5033130;28;20676;-50
2022/02/03 05:08:30;;;;;;;31.77;5.10;;;4.70;99.90;;;;;;5033384;28;20244;-50
2022/02/03 05:11:27;;;;;;;20.10;4.25;;;4.70;99.90;;;;;;5033318;28;20677;-50
2022/02/03 05:17:24;;;;;;;14.73;4.90;;;4.60;99.90;;;;;;5032958;28;20226;-50
2022/02/03 05:32:34;;;;;;;19.45;4.60;;;4.60;99.90;;;;;;5012247;28;20232;-50
2022/02/03 05:35:18;;;;;;;13.30;4.40;;;4.60;99.90;;;;;;5012350;28;20197;-51
2022/02/03 05:44:06;;;;;;;12.60;4.45;;;4.60;99.90;;;;;;5012222;28;20232;-50
2022/02/03 05:46:58;;;;;;;18.52;4.20;;;4.60;99.90;;;;;;5011967;28;20224;-49
2022/02/03 05:52:38;;;;;;;22.00;4.85;;;4.60;99.90;;;;;;5004816;28;20551;-51
2022/02/03 05:55:35;;;;;;;16.90;4.05;;;4.60;99.90;;;;;;5011667;28;20213;-51
2022/02/03 06:01:14;;;;;;;14.88;3.88;;;4.70;99.90;;;;;;5011604;28;20283;-50
2022/02/03 06:06:34;;;;;;;17.40;4.78;;;4.70;99.90;;;;;;5016473;28;20222;-50
2022/02/03 06:09:17;;;;;;;22.75;4.43;;;4.70;99.90;;;;;;5031173;28;20200;-50
2022/02/03 06:14:35;;;;;;;14.38;4.00;;;4.70;99.90;;;;;;5031512;28;20350;-50
2022/02/03 06:17:17;;;;;;;13.48;4.40;;;4.70;99.90;;;;;;5031176;28;20304;-50
2022/02/03 06:22:42;;;;;;;14.32;5.60;;;4.70;99.90;;;;;;5030948;28;20201;-50
2022/02/03 06:27:53;;;;;;;11.93;4.95;;;4.80;99.90;;;;;;5031501;28;20356;-51
2022/02/03 06:30:21;;;;;;;13.15;4.57;;;4.80;99.90;;;;;;5030945;28;20197;-51
2022/02/03 06:32:49;;;;;;;15.48;4.47;;;4.80;99.90;;;;;;5031080;28;20196;-52
2022/02/03 06:35:17;;;;;;;15.23;3.58;;;4.80;99.90;;;;;;5031144;28;20208;-51
2022/02/03 06:37:45;;;;;;;12.70;4.10;;;4.80;99.90;;;;;;5031050;28;20213;-51
2022/02/03 06:40:12;;;;;;;12.10;3.80;;;4.80;99.90;;;;;;5030783;28;20829;-51
2022/02/03 06:42:39;;;;;;;18.20;4.18;;;4.80;99.90;;;;;;5029172;28;20959;-52
2022/02/03 06:45:12;;;;;;;13.97;4.90;;;4.70;99.90;;;;;;5030795;28;20205;-51
2022/02/03 06:47:49;;;;;;;16.03;4.10;;;4.80;99.90;;;;;;5031009;28;20440;-51
2022/02/03 06:50:21;;;;;;;18.50;4.40;;;4.80;99.90;;;;;;5030801;28;20504;-52
2022/02/03 06:52:53;;;;;;;20.55;4.90;;;4.80;99.90;;;;;;5030820;28;20506;-50
2022/02/03 06:55:26;;;;;;;19.85;5.20;;;4.80;99.90;;;;;;5030983;28;20239;-50
2022/02/03 06:57:57;;;;;;;15.88;5.75;;;4.80;99.90;;;;;;5030693;28;20227;-50
2022/02/03 07:00:28;;;;;;;13.30;4.25;;;4.80;99.90;;;;;;5030867;28;20196;-50
2022/02/03 07:02:57;;;;;;;14.65;4.90;;;4.80;99.90;;;;;;5030722;28;20200;-49
2022/02/03 07:05:26;;;;;;;16.40;4.60;;;4.80;99.90;;;;;;5030662;28;20201;-50
2022/02/03 07:07:53;;;;;;;22.55;4.85;;;4.80;99.90;;;;;;5030790;28;20456;-50
2022/02/03 07:10:20;;;;;;;14.80;5.25;;;4.80;99.90;;;;;;5030406;28;20199;-50
2022/02/03 07:12:47;;;;;;;22.58;5.00;;;4.80;99.90;;;;;;5030810;28;20192;-51
2022/02/03 07:15:13;;;;;;;13.93;5.00;;;4.80;99.90;;;;;;5030694;28;20205;-51
2022/02/03 07:17:40;;;;;;;20.17;5.82;;;4.90;99.90;;;;;;5030421;28;20506;-51
2022/02/03 07:20:12;;;;;;;19.60;5.53;;;4.90;99.90;;;;;;5030309;28;20204;-51
2022/02/03 07:22:42;;;;;;;13.48;4.80;;;4.90;99.90;;;;;;5032124;28;20197;-50
2022/02/03 07:25:09;;;;;;;18.65;5.28;;;5.00;99.90;;;;;;5034199;28;20197;-50
2022/02/03 07:27:36;;;;;;;14.65;5.45;;;5.00;99.90;;;;;;5034011;28;20317;-51
2022/02/03 07:30:03;;;;;;;12.60;4.95;;;5.10;99.90;;;;;;5033872;28;20280;-50
2022/02/03 07:32:30;;;;;;;18.63;6.13;;;5.10;99.90;;;;;;5034234;28;20658;-50
2022/02/03 07:34:57;;;;;;;17.43;5.33;;;5.10;99.90;;;;;;5033767;28;20208;-50
2022/02/03 07:37:26;;;;;;;22.80;6.53;;;5.10;99.90;;;;;;5033325;28;20482;-50
2022/02/03 07:39:54;;;;;;;14.70;6.00;;;5.20;99.90;;;;;;5033734;28;20461;-51
2022/02/03 07:42:21;;;;;;;14.97;6.00;;;5.20;99.90;;;;;;5033104;28;20432;-51
2022/02/03 07:44:48;;;;;;;18.80;6.37;;;5.20;99.90;;;;;;5033400;28;20451;-51
2022/02/03 07:47:15;;;;;;;14.67;5.27;;;5.20;99.90;;;;;;5033677;28;20455;-50
2022/02/03 07:49:42;;;;;;;16.50;5.30;;;5.30;99.90;;;;;;5033665;28;20436;-51
2022/02/03 07:52:09;;;;;;;17.17;6.00;;;5.30;99.90;;;;;;5033619;28;20447;-50
2022/02/03 07:54:38;;;;;;;14.47;5.73;;;5.30;99.90;;;;;;5033571;28;20475;-50
2022/02/03 07:57:07;;;;;;;22.53;5.30;;;5.40;99.90;;;;;;5033307;28;20490;-51
2022/02/03 07:59:33;;;;;;;16.80;4.67;;;5.40;99.90;;;;;;5033251;28;20539;-50
2022/02/03 08:02:00;;;;;;;20.70;5.63;;;5.40;99.90;;;;;;5033201;28;20779;-50
2022/02/03 08:04:30;;;;;;;14.13;4.80;;;5.50;99.90;;;;;;5033460;28;20444;-50
2022/02/03 08:06:57;;;;;;;17.93;6.07;;;5.50;99.90;;;;;;5033016;28;20447;-50
2022/02/03 08:09:27;;;;;;;14.10;5.10;;;5.50;99.90;;;;;;5033118;28;20459;-50
2022/02/03 08:11:55;;;;;;;21.10;6.10;;;5.60;99.90;;;;;;5033104;28;20467;-52
2022/02/03 08:14:30;;;;;;;20.20;6.10;;;5.60;99.90;;;;;;5033215;28;20445;-50
2022/02/03 08:17:02;;;;;;;21.10;6.90;;;5.60;99.90;;;;;;5033434;28;20455;-50
2022/02/03 08:19:34;;;;;;;14.60;4.80;;;5.60;99.90;;;;;;5033023;28;20462;-51
2022/02/03 08:22:05;;;;;;;15.07;5.57;;;5.70;99.90;;;;;;5032966;28;20489;-51
2022/02/03 08:24:43;;;;;;;16.23;5.60;;;5.70;99.90;;;;;;5033094;28;20451;-50
2022/02/03 08:27:35;;;;;;;18.17;4.80;;;5.70;99.90;;;;;;5032480;28;20481;-50
2022/02/03 08:32:48;;;;;;;15.80;5.60;;;5.90;99.90;;;;;;5032620;28;20436;-53
2022/02/03 08:35:32;;;;;;;16.77;6.27;;;6.00;99.90;;;;;;5032960;28;20411;-52
2022/02/03 08:38:06;;;;;;;18.70;7.00;;;6.00;99.90;;;;;;5032731;28;20543;-52
2022/02/03 08:40:44;;;;;;;23.07;6.97;;;6.10;99.90;;;;;;5032682;28;20755;-51
2022/02/03 08:43:11;;;;;;;13.83;5.50;;;6.10;99.90;;;;;;5032812;28;20426;-51
2022/02/03 08:45:39;;;;;;;16.47;6.23;;;6.30;99.90;;;;;;5032668;28;20484;-52
2022/02/03 08:48:05;;;;;;;11.33;5.20;;;6.30;99.90;;;;;;5032609;28;20468;-52
2022/02/03 08:50:34;;;;;;;20.10;6.53;;;6.40;99.90;;;;;;5032125;28;20437;-51
2022/02/03 08:53:05;;;;;;;21.70;6.37;;;6.50;99.90;;;;;;5029205;28;20454;-51
2022/02/03 08:55:40;;;;;;;19.50;5.43;;;6.50;99.90;;;;;;5032107;28;20444;-51
2022/02/03 08:58:34;;;;;;;16.80;6.10;;;6.80;99.90;;;;;;5032029;28;20554;-51
2022/02/03 09:37:38;;;;;;;21.03;6.90;;;7.30;99.90;;;;;;5046198;28;20438;-50
2022/02/03 09:40:21;;;;;;;20.00;6.80;;;7.30;99.90;;;;;;5068374;28;20478;-51
2022/02/03 09:51:48;;;;;;;21.13;6.17;;;7.40;99.90;;;;;;5067983;28;21003;-51
2022/02/03 09:57:18;;;;;;;16.67;6.80;;;7.50;99.90;;;;;;5025846;28;20594;-51
2022/02/03 09:59:52;;;;;;;14.70;6.70;;;7.60;99.90;;;;;;5059391;28;20449;-51
2022/02/03 10:02:23;;;;;;;12.03;5.73;;;7.60;99.90;;;;;;5087122;28;20932;-52
2022/02/03 10:04:54;;;;;;;12.90;5.50;;;7.70;99.90;;;;;;5088103;28;20419;-50
2022/02/03 10:07:24;;;;;;;18.17;6.00;;;7.70;99.90;;;;;;5075016;28;20470;-51
2022/02/03 10:09:52;;;;;;;21.73;6.67;;;7.70;99.90;;;;;;5067472;28;20570;-51
2022/02/03 10:12:29;;;;;;;11.90;4.90;;;7.70;99.90;;;;;;5067542;28;20433;-51
2022/02/03 10:14:56;;;;;;;14.70;5.90;;;7.70;99.90;;;;;;5067954;28;20421;-51
2022/02/03 10:17:31;;;;;;;14.20;6.23;;;7.80;99.90;;;;;;5067355;28;20982;-51
2022/02/03 10:20:01;;;;;;;11.80;6.33;;;7.70;99.90;;;;;;5067868;28;20408;-51
2022/02/03 10:22:28;;;;;;;19.53;7.10;;;7.80;99.90;;;;;;5067258;28;20434;-50
2022/02/03 10:25:02;;;;;;;11.23;6.13;;;7.90;99.90;;;;;;5067311;28;20444;-51
2022/02/03 10:27:35;;;;;;;18.70;6.10;;;7.90;99.90;;;;;;5066698;28;20518;-51
2022/02/03 10:30:16;;;;;;;19.37;6.60;;;8.00;99.90;;;;;;5066433;28;20541;-51
2022/02/03 10:32:44;;;;;;;14.10;6.68;;;8.00;99.90;;;;;;5067392;28;20524;-51
2022/02/03 10:35:24;;;;;;;13.40;6.73;;;8.10;99.90;;;;;;5067270;28;20220;-50
2022/02/03 10:38:31;;;;;;;12.57;6.80;;;8.10;99.90;;;;;;5067551;28;20465;-51
2022/02/03 10:41:34;;;;;;;16.27;6.63;;;8.20;99.90;;;;;;5067384;28;20528;-50
2022/02/03 10:47:34;;;;;;;14.13;7.40;;;8.20;99.90;;;;;;5034007;28;20570;-49
2022/02/03 10:50:14;;;;;;;14.63;7.17;;;8.20;99.90;;;;;;5033176;28;20482;-51
2022/02/03 10:53:03;;;;;;;17.23;7.70;;;8.10;99.90;;;;;;5033782;28;20472;-51
2022/02/03 10:55:58;;;;;;;23.23;14.90;;;8.10;99.90;;;;;;5053579;28;20417;-54
2022/02/03 11:01:40;;;;;;;13.10;8.47;;;8.10;99.90;;;;;;5063369;28;20515;-51
2022/02/03 11:07:03;;;;;;;13.80;8.13;;;8.10;99.90;;;;;;5069566;28;20469;-51
2022/02/03 11:09:46;;;;;;;16.33;8.57;;;8.10;99.90;;;;;;5073171;28;20429;-52
2022/02/03 11:12:20;;;;;;;15.90;8.63;;;8.10;99.90;;;;;;5073120;28;20437;-51
2022/02/03 11:14:48;;;;;;;15.53;7.70;;;8.10;99.90;;;;;;5072988;28;20429;-52
2022/02/03 11:17:17;;;;;;;17.03;8.90;;;8.10;99.90;;;;;;5072846;28;20456;-51
2022/02/03 11:19:49;;;;;;;18.87;9.53;;;8.00;99.90;;;;;;5072821;28;20407;-51
2022/02/03 11:22:22;;;;;;;15.53;9.00;;;8.00;99.90;;;;;;5073011;28;20966;-51
2022/02/03 11:25:03;;;;;;;13.70;9.77;;;8.00;99.90;;;;;;5073045;28;20459;-51
2022/02/03 11:27:44;;;;;;;12.87;9.43;;;8.00;99.90;;;;;;5062985;28;20441;-51
2022/02/03 11:30:45;;;;;;;11.70;8.30;;;8.10;99.90;;;;;;5052432;28;20489;-51
2022/02/03 11:42:06;;;;;;;14.17;9.40;;;8.00;99.90;;;;;;5021715;28;20527;-52
2022/02/03 11:45:12;;;;;;;14.60;9.17;;;8.00;99.90;;;;;;5044361;28;20437;-51
2022/02/03 11:50:55;;;;;;;19.27;10.40;;;8.00;99.90;;;;;;5149875;27;21010;-51
2022/02/03 11:56:31;;;;;;;14.63;10.03;;;8.00;99.90;;;;;;5113228;27;20528;-52
2022/02/03 11:59:46;;;;;;;17.57;9.70;;;8.10;99.90;;;;;;5128916;27;20508;-53
2022/02/03 12:02:34;;;;;;;13.47;10.20;;;8.10;99.90;;;;;;5124974;22;20436;-44
2022/02/03 12:05:14;;;;;;;15.93;9.93;;;8.10;99.90;;;;;;5026995;28;20434;-45
2022/02/03 12:08:17;;;;;;;17.40;12.07;;;8.10;99.90;;;;;;5028419;28;20458;-44
2022/02/03 12:11:00;;;;;;;15.50;13.17;;;8.10;99.90;;;;;;5027596;28;20447;-44
2022/02/03 12:14:07;;;;;;;15.83;10.33;;;8.10;99.90;;;;;;5008464;28;20430;-46
2022/02/03 12:16:54;;;;;;;17.10;10.93;;;8.10;99.90;;;;;;5008517;28;20421;-45
2022/02/03 12:19:27;;;;;;;15.40;10.33;;;8.10;99.90;;;;;;5008623;28;20998;-43
2022/02/03 12:22:07;;;;;;;14.43;10.33;;;8.10;99.90;;;;;;5008392;28;20444;-42
2022/02/03 12:24:45;;;;;;;12.83;10.00;;;8.10;99.90;;;;;;5007937;28;20936;-46
2022/02/03 12:27:28;;;;;;;12.50;10.37;;;7.90;99.90;;;;;;5010553;28;20448;-44
2022/02/03 12:30:01;;;;;;;13.10;10.07;;;8.10;99.90;;;;;;5007363;28;20483;-46
2022/02/03 12:32:52;;;;;;;16.17;11.53;;;8.10;99.90;;;;;;5008166;28;21045;-43
2022/02/03 12:40:55;;;;;;;13.20;9.63;;;8.10;99.90;;;;;;5007866;28;20427;-48
2022/02/03 12:43:32;;;;;;;12.87;10.60;;;8.10;99.90;;;;;;5007893;28;20431;-44
2022/02/03 12:46:01;;;;;;;20.70;11.57;;;8.10;99.90;;;;;;5022834;28;20418;-43
2022/02/03 12:48:29;;;;;;;12.80;10.57;;;8.10;99.90;;;;;;5026895;28;20521;-46
2022/02/03 12:50:56;;;;;;;18.27;11.83;;;8.20;99.90;;;;;;5026927;28;20925;-44
2022/02/03 12:53:31;;;;;;;14.80;11.67;;;8.20;99.90;;;;;;5027290;28;20452;-43
2022/02/03 12:56:02;;;;;;;13.63;11.60;;;8.30;99.90;;;;;;5027146;28;20821;-43
2022/02/03 12:58:36;;;;;;;15.20;11.03;;;8.30;99.90;;;;;;5027126;28;20775;-44
2022/02/03 13:01:08;;;;;;;19.67;11.53;;;8.30;99.90;;;;;;5017828;28;21012;-43
2022/02/03 13:03:38;;;;;;;13.30;10.73;;;8.30;99.90;;;;;;5014430;28;20479;-43
2022/02/03 13:06:09;;;;;;;13.80;10.63;;;8.30;99.90;;;;;;5013562;28;20411;-45
2022/02/03 13:08:38;;;;;;;14.43;10.03;;;8.30;99.90;;;;;;5014164;28;20447;-43
2022/02/03 13:11:12;;;;;;;13.10;9.90;;;8.40;99.90;;;;;;5012489;28;20783;-45
2022/02/03 13:13:51;;;;;;;14.30;11.17;;;8.20;99.90;;;;;;5013613;28;21072;-45
2022/02/03 13:16:18;;;;;;;15.30;12.00;;;8.20;99.90;;;;;;5013928;28;20506;-47
2022/02/03 13:18:59;;;;;;;11.87;9.40;;;8.30;99.90;;;;;;5013275;28;20929;-44
2022/02/03 13:21:35;;;;;;;13.33;9.13;;;8.30;99.90;;;;;;5013687;28;20452;-45
2022/02/03 13:24:07;;;;;;;14.10;10.43;;;8.30;99.90;;;;;;5013677;28;20462;-47
2022/02/03 13:26:37;;;;;;;12.17;9.53;;;8.30;99.90;;;;;;5012569;28;20428;-46
2022/02/03 13:29:07;;;;;;;10.87;9.30;;;8.30;99.90;;;;;;4993372;28;20488;-43
2022/02/03 13:31:44;;;;;;;16.50;10.63;;;8.30;99.90;;;;;;4993539;28;20433;-47
2022/02/03 13:34:27;;;;;;;12.77;9.97;;;8.30;99.90;;;;;;4993522;28;20431;-45
2022/02/03 13:37:01;;;;;;;13.00;10.63;;;8.30;99.90;;;;;;4993851;28;20912;-44
2022/02/03 13:39:29;;;;;;;10.13;9.10;;;8.30;99.90;;;;;;4993202;28;20521;-44
2022/02/03 13:42:05;;;;;;;13.30;11.10;;;8.30;99.90;;;;;;4992022;28;20481;-44
2022/02/03 13:44:33;;;;;;;14.53;11.67;;;8.40;99.90;;;;;;4996718;28;20806;-43
2022/02/03 13:46:59;;;;;;;13.13;11.07;;;8.30;99.90;;;;;;5013049;28;20462;-45
2022/02/03 13:49:28;;;;;;;13.80;10.30;;;8.30;99.90;;;;;;5010303;28;20465;-43
2022/02/03 13:52:02;;;;;;;20.27;11.67;;;8.40;99.90;;;;;;5012931;28;20526;-44
2022/02/03 13:54:51;;;;;;;12.83;11.37;;;8.40;99.90;;;;;;5012782;28;20469;-44
2022/02/03 14:23:00;;;;;;;15.50;10.83;;;8.50;99.90;;;;;;4926066;28;20488;-43
2022/02/03 14:28:11;;;;;;;13.90;10.50;;;8.50;99.90;;;;;;4996614;28;20521;-44
2022/02/03 14:30:44;;;;;;;18.33;12.27;;;8.60;99.90;;;;;;4992188;28;20467;-46
2022/02/03 14:33:12;;;;;;;14.30;11.33;;;8.60;99.90;;;;;;4991769;28;20981;-45
2022/02/03 14:35:39;;;;;;;15.37;11.90;;;8.60;99.90;;;;;;4994901;28;20475;-46
2022/02/03 14:38:15;;;;;;;15.30;13.53;;;8.60;99.90;;;;;;5011352;28;20487;-45
2022/02/03 14:40:53;;;;;;;14.33;11.57;;;8.60;99.90;;;;;;5011119;28;20402;-52
2022/02/03 14:43:20;;;;;;;16.30;10.83;;;8.60;99.90;;;;;;4997167;28;20438;-45
2022/02/03 14:45:48;;;;;;;12.07;10.37;;;8.60;99.90;;;;;;5004450;28;20431;-48
2022/02/03 14:48:17;;;;;;;13.70;11.23;;;8.60;99.90;;;;;;5011956;28;20415;-44
2022/02/03 14:50:44;;;;;;;14.50;10.33;;;8.70;99.90;;;;;;5011192;28;20461;-44
2022/02/03 14:53:17;;;;;;;14.50;11.43;;;8.70;99.90;;;;;;4996323;28;20526;-44
2022/02/03 14:58:39;;;;;;;17.63;11.17;;;8.70;99.90;;;;;;4950376;29;20526;-45
2022/02/03 15:01:12;;;;;;;15.33;11.10;;;8.70;99.90;;;;;;4996149;28;20431;-43
2022/02/03 15:03:39;;;;;;;12.50;10.30;;;8.70;99.90;;;;;;5011188;28;20456;-46
2022/02/03 15:06:09;;;;;;;12.60;10.60;;;8.80;99.90;;;;;;5012415;28;20447;-44
2022/02/03 15:08:54;;;;;;;15.50;11.07;;;8.70;99.90;;;;;;5010799;28;20427;-43
2022/02/03 15:11:27;;;;;;;12.83;9.77;;;8.80;99.90;;;;;;5011017;28;20476;-45
2022/02/03 15:13:54;;;;;;;13.90;10.37;;;8.50;99.90;;;;;;5010605;28;21001;-45
2022/02/03 15:16:22;;;;;;;11.87;10.23;;;8.70;99.90;;;;;;5010974;28;20440;-43
2022/02/03 15:18:49;;;;;;;13.53;10.90;;;8.70;99.90;;;;;;4991134;28;20437;-44
2022/02/03 15:21:15;;;;;;;12.57;10.63;;;8.70;99.90;;;;;;4991140;28;20922;-44
2022/02/03 15:23:42;;;;;;;11.37;10.07;;;8.80;99.90;;;;;;4991266;28;20454;-44
2022/02/03 15:26:09;;;;;;;14.43;10.43;;;8.80;99.90;;;;;;4991408;28;20427;-43
2022/02/03 15:28:35;;;;;;;14.27;11.20;;;8.80;99.90;;;;;;5010260;28;20440;-45
2022/02/03 15:31:04;;;;;;;11.33;9.80;;;8.80;99.90;;;;;;5010700;28;20487;-44
2022/02/03 15:33:32;;;;;;;14.00;10.00;;;8.80;99.90;;;;;;5010972;28;20453;-45
2022/02/03 15:36:02;;;;;;;15.63;10.90;;;8.80;99.90;;;;;;5011288;28;20890;-44
2022/02/03 15:38:33;;;;;;;22.77;12.37;;;8.80;99.90;;;;;;5010791;28;20495;-43
2022/02/03 15:41:03;;;;;;;13.00;10.07;;;8.80;99.90;;;;;;5010693;28;20889;-46
2022/02/03 15:43:37;;;;;;;12.37;11.07;;;8.80;99.90;;;;;;5011398;28;20439;-45
2022/02/03 15:46:04;;;;;;;12.03;10.23;;;8.80;99.90;;;;;;5010273;28;20527;-45
2022/02/03 15:48:39;;;;;;;15.63;11.03;;;8.80;99.90;;;;;;5010608;28;20435;-45
2022/02/03 15:51:17;;;;;;;18.03;13.10;;;8.80;99.90;;;;;;5010817;28;20694;-45
2022/02/03 16:18:57;;;;;;;13.10;11.63;;;8.70;99.90;;;;;;5010525;28;20493;-43
2022/02/03 16:21:32;;;;;;;14.10;11.17;;;8.70;99.90;;;;;;5010580;28;20438;-44
2022/02/03 16:41:00;;;;;;;13.60;12.13;;;8.80;99.90;;;;;;5013995;28;20417;-46
2022/02/03 16:51:56;;;;;;;16.13;13.70;;;8.80;99.90;;;;;;5011949;28;20422;-44
2022/02/03 16:54:24;;;;;;;17.93;13.37;;;8.80;99.90;;;;;;5013440;28;20492;-46
2022/02/03 16:56:57;;;;;;;21.60;14.10;;;8.90;99.90;;;;;;5013207;28;20418;-45
2022/02/03 16:59:24;;;;;;;15.10;12.77;;;8.90;99.90;;;;;;5013163;28;20515;-47
2022/02/03 17:01:50;;;;;;;16.37;12.43;;;8.90;99.90;;;;;;5011468;28;20830;-43
2022/02/03 17:04:17;;;;;;;15.77;13.70;;;8.90;99.90;;;;;;5010004;28;20745;-46
2022/02/03 17:06:44;;;;;;;16.07;13.53;;;8.90;99.90;;;;;;5011120;28;20792;-46
2022/02/03 17:09:11;;;;;;;16.40;12.17;;;8.90;99.90;;;;;;5009773;28;20436;-45
2022/02/03 17:11:39;;;;;;;16.00;13.03;;;8.90;99.90;;;;;;5010610;28;20847;-47
2022/02/03 17:14:06;;;;;;;19.00;13.70;;;8.90;99.90;;;;;;5010659;28;20460;-48
2022/02/03 17:16:33;;;;;;;17.20;13.97;;;9.00;99.90;;;;;;5011195;28;21001;-46
2022/02/03 17:19:00;;;;;;;22.90;14.80;;;8.90;99.90;;;;;;5012168;28;20965;-44
2022/02/03 17:21:29;;;;;;;21.47;15.03;;;8.90;99.90;;;;;;5012372;28;20804;-48
2022/02/03 17:23:56;;;;;;;17.17;13.50;;;8.90;99.90;;;;;;5013093;28;20453;-44
2022/02/03 17:26:29;;;;;;;19.00;13.70;;;9.00;99.90;;;;;;5012161;28;20782;-45
2022/02/03 17:29:04;;;;;;;20.57;14.80;;;8.90;99.90;;;;;;4993184;28;20528;-43
2022/02/03 17:31:46;;;;;;;19.17;14.17;;;9.00;99.90;;;;;;4992918;28;20455;-46
2022/02/03 18:07:35;;;;;;;18.63;15.23;;;9.00;99.90;;;;;;5032787;28;20440;-46
2022/02/03 18:10:08;;;;;;;17.67;14.90;;;9.00;99.90;;;;;;5032681;28;21045;-47
2022/02/03 18:19:18;;;;;;;19.77;14.97;;;8.90;99.90;;;;;;5032439;28;20443;-45
2022/02/03 18:30:11;;;;;;;19.60;14.37;;;8.90;99.90;;;;;;5089415;28;20576;-46
2022/02/03 18:32:53;;;;;;;21.47;15.67;;;8.90;99.90;;;;;;5089045;28;20526;-46
2022/02/03 18:35:30;;;;;;;19.80;15.20;;;8.80;99.90;;;;;;5089258;28;20482;-48
2022/02/03 18:47:04;;;;;;;22.83;15.80;;;8.90;99.90;;;;;;5089073;28;20494;-46
2022/02/03 18:52:10;;;;;;;19.97;15.00;;;8.90;99.90;;;;;;5089059;28;20969;-46
2022/02/03 18:54:55;;;;;;;20.13;15.60;;;8.90;99.90;;;;;;5072659;28;20444;-47
2022/02/03 18:57:33;;;;;;;23.33;16.43;;;8.90;99.90;;;;;;5069082;28;20469;-46
2022/02/03 19:03:05;;;;;;;20.57;15.53;;;8.90;99.90;;;;;;5068109;28;20436;-47
2022/02/03 19:25:17;;;;;;;21.50;15.40;;;9.10;99.90;;;;;;5068624;28;20453;-48
2022/02/03 19:27:58;;;;;;;24.90;15.57;;;8.90;99.90;;;;;;5068123;28;20885;-45
2022/02/03 20:03:54;;;;;;;21.80;15.50;;;8.80;99.90;;;;;;5055122;28;20454;-46
2022/02/03 20:06:33;;;;;;;22.67;15.50;;;8.80;99.90;;;;;;5054404;28;20427;-47
2022/02/03 20:09:10;;;;;;;22.10;14.80;;;8.80;99.90;;;;;;5054466;28;20496;-46
2022/02/03 20:11:37;;;;;;;23.37;15.67;;;8.80;99.90;;;;;;5055093;28;20919;-45
2022/02/03 20:14:11;;;;;;;20.83;15.03;;;8.80;99.90;;;;;;5055521;28;20873;-47
2022/02/03 20:16:38;;;;;;;19.50;16.47;;;8.80;99.90;;;;;;5054075;28;20494;-48
2022/02/03 20:19:04;;;;;;;20.50;15.40;;;8.80;99.90;;;;;;5054530;28;20434;-48
2022/02/03 20:21:33;;;;;;;18.60;15.23;;;8.80;99.90;;;;;;5056518;28;20439;-46
2022/02/03 20:24:03;;;;;;;18.40;15.70;;;8.80;99.90;;;;;;5055732;28;20466;-45
2022/02/03 20:26:30;;;;;;;22.30;16.17;;;8.80;99.90;;;;;;5057655;28;20467;-46
2022/02/03 20:28:57;;;;;;;22.10;17.47;;;8.80;99.90;;;;;;5075519;28;20847;-47
2022/02/03 20:31:23;;;;;;;19.37;15.23;;;8.80;99.90;;;;;;5076418;28;20434;-46
2022/02/03 20:33:50;;;;;;;19.23;14.80;;;8.90;99.90;;;;;;5077353;28;20533;-46
2022/02/03 20:36:17;;;;;;;17.53;14.53;;;8.90;99.90;;;;;;5076433;28;20437;-47
2022/02/03 20:38:43;;;;;;;30.20;16.37;;;8.90;99.90;;;;;;5076597;28;20437;-46
2022/02/03 20:41:11;;;;;;;23.07;16.60;;;8.90;99.90;;;;;;5076246;28;20448;-47
2022/02/03 20:43:38;;;;;;;22.20;15.83;;;8.90;99.90;;;;;;5074807;28;20465;-47
2022/02/03 20:46:05;;;;;;;21.50;16.20;;;8.90;99.90;;;;;;5077988;28;20424;-46
2022/02/03 20:48:32;;;;;;;23.20;15.70;;;8.90;99.90;;;;;;5078206;28;20440;-46
2022/02/03 20:50:59;;;;;;;22.70;15.37;;;8.90;99.90;;;;;;5074225;28;20438;-46
2022/02/03 20:53:26;;;;;;;26.00;14.90;;;8.90;99.90;;;;;;5066501;28;21061;-46
2022/02/03 20:55:53;;;;;;;21.63;15.30;;;8.90;99.90;;;;;;5053932;28;20437;-45